sensor_id;sensor_type;location;lat;lon;timestamp;P1;durP1;ratioP1;P2;durP2;ratioP2
7179;SDS011;3631;42.152;24.756;2024-02-26T00:00:38;50.67;;;30.40;;
7179;SDS011;3631;42.152;24.756;2024-02-26T00:03:06;52.53;;;30.27;;
7179;SDS011;3631;42.152;24.756;2024-02-26T00:05:32;57.33;;;30.70;;
7179;SDS011;3631;42.152;24.756;2024-02-26T00:08:00;54.00;;;30.37;;
7179;SDS011;3631;42.152;24.756;2024-02-26T00:10:28;53.73;;;31.03;;
7179;SDS011;3631;42.152;24.756;2024-02-26T00:12:55;61.07;;;31.93;;
7179;SDS011;3631;42.152;24.756;2024-02-26T00:15:22;51.50;;;31.23;;
7179;SDS011;3631;42.152;24.756;2024-02-26T00:17:49;51.50;;;29.27;;
7179;SDS011;3631;42.152;24.756;2024-02-26T00:20:16;47.90;;;30.07;;
7179;SDS011;3631;42.152;24.756;2024-02-26T00:22:43;51.67;;;30.23;;
7179;SDS011;3631;42.152;24.756;2024-02-26T00:25:10;50.93;;;29.63;;
7179;SDS011;3631;42.152;24.756;2024-02-26T00:27:39;48.83;;;29.27;;
7179;SDS011;3631;42.152;24.756;2024-02-26T00:30:07;53.90;;;29.53;;
7179;SDS011;3631;42.152;24.756;2024-02-26T00:32:35;44.70;;;27.60;;
7179;SDS011;3631;42.152;24.756;2024-02-26T00:35:02;47.07;;;27.90;;
7179;SDS011;3631;42.152;24.756;2024-02-26T00:37:29;53.30;;;28.20;;
7179;SDS011;3631;42.152;24.756;2024-02-26T00:39:56;46.97;;;27.73;;
7179;SDS011;3631;42.152;24.756;2024-02-26T00:42:22;43.83;;;27.23;;
7179;SDS011;3631;42.152;24.756;2024-02-26T00:44:51;44.93;;;27.03;;
7179;SDS011;3631;42.152;24.756;2024-02-26T00:47:18;45.27;;;25.63;;
7179;SDS011;3631;42.152;24.756;2024-02-26T00:49:45;44.67;;;26.20;;
7179;SDS011;3631;42.152;24.756;2024-02-26T00:52:11;47.93;;;26.27;;
7179;SDS011;3631;42.152;24.756;2024-02-26T00:54:38;39.80;;;24.53;;
7179;SDS011;3631;42.152;24.756;2024-02-26T00:57:05;40.73;;;24.87;;
7179;SDS011;3631;42.152;24.756;2024-02-26T00:59:32;40.83;;;24.20;;
7179;SDS011;3631;42.152;24.756;2024-02-26T01:02:01;42.03;;;24.13;;
7179;SDS011;3631;42.152;24.756;2024-02-26T01:04:29;38.93;;;23.60;;
7179;SDS011;3631;42.152;24.756;2024-02-26T01:06:56;37.30;;;22.07;;
7179;SDS011;3631;42.152;24.756;2024-02-26T01:09:23;37.53;;;20.40;;
7179;SDS011;3631;42.152;24.756;2024-02-26T01:11:50;28.57;;;18.50;;
7179;SDS011;3631;42.152;24.756;2024-02-26T01:14:17;31.33;;;20.03;;
7179;SDS011;3631;42.152;24.756;2024-02-26T01:16:43;33.20;;;18.80;;
7179;SDS011;3631;42.152;24.756;2024-02-26T01:19:12;28.03;;;17.83;;
7179;SDS011;3631;42.152;24.756;2024-02-26T01:21:38;43.20;;;21.70;;
7179;SDS011;3631;42.152;24.756;2024-02-26T01:24:05;35.63;;;21.97;;
7179;SDS011;3631;42.152;24.756;2024-02-26T01:26:33;31.77;;;21.07;;
7179;SDS011;3631;42.152;24.756;2024-02-26T01:29:00;35.53;;;22.30;;
7179;SDS011;3631;42.152;24.756;2024-02-26T01:31:26;42.40;;;22.43;;
7179;SDS011;3631;42.152;24.756;2024-02-26T01:33:53;31.17;;;20.83;;
7179;SDS011;3631;42.152;24.756;2024-02-26T01:36:22;35.97;;;21.87;;
7179;SDS011;3631;42.152;24.756;2024-02-26T01:38:49;33.47;;;21.07;;
7179;SDS011;3631;42.152;24.756;2024-02-26T01:41:16;32.60;;;21.50;;
7179;SDS011;3631;42.152;24.756;2024-02-26T01:43:43;32.67;;;21.20;;
7179;SDS011;3631;42.152;24.756;2024-02-26T01:46:10;32.07;;;20.50;;
7179;SDS011;3631;42.152;24.756;2024-02-26T01:48:40;34.67;;;20.80;;
7179;SDS011;3631;42.152;24.756;2024-02-26T01:51:07;32.63;;;20.23;;
7179;SDS011;3631;42.152;24.756;2024-02-26T01:53:36;32.83;;;20.10;;
7179;SDS011;3631;42.152;24.756;2024-02-26T01:56:03;34.57;;;20.70;;
7179;SDS011;3631;42.152;24.756;2024-02-26T01:58:31;32.63;;;21.17;;
7179;SDS011;3631;42.152;24.756;2024-02-26T02:00:58;33.83;;;21.47;;
7179;SDS011;3631;42.152;24.756;2024-02-26T02:03:26;32.83;;;21.00;;
7179;SDS011;3631;42.152;24.756;2024-02-26T02:05:54;29.73;;;21.03;;
7179;SDS011;3631;42.152;24.756;2024-02-26T02:08:21;33.17;;;21.37;;
7179;SDS011;3631;42.152;24.756;2024-02-26T02:10:50;31.27;;;20.50;;
7179;SDS011;3631;42.152;24.756;2024-02-26T02:13:17;36.77;;;21.90;;
7179;SDS011;3631;42.152;24.756;2024-02-26T02:15:44;30.73;;;20.67;;
7179;SDS011;3631;42.152;24.756;2024-02-26T02:18:11;34.00;;;19.93;;
7179;SDS011;3631;42.152;24.756;2024-02-26T02:20:39;33.63;;;21.33;;
7179;SDS011;3631;42.152;24.756;2024-02-26T02:23:06;34.97;;;19.77;;
7179;SDS011;3631;42.152;24.756;2024-02-26T02:25:33;34.77;;;19.97;;
7179;SDS011;3631;42.152;24.756;2024-02-26T02:28:00;33.60;;;19.90;;
7179;SDS011;3631;42.152;24.756;2024-02-26T02:30:28;29.27;;;20.10;;
7179;SDS011;3631;42.152;24.756;2024-02-26T02:32:56;29.03;;;18.60;;
7179;SDS011;3631;42.152;24.756;2024-02-26T02:35:23;32.97;;;20.53;;
7179;SDS011;3631;42.152;24.756;2024-02-26T02:37:52;30.10;;;19.97;;
7179;SDS011;3631;42.152;24.756;2024-02-26T02:40:19;32.03;;;20.40;;
7179;SDS011;3631;42.152;24.756;2024-02-26T02:42:46;29.33;;;18.67;;
7179;SDS011;3631;42.152;24.756;2024-02-26T02:45:13;34.07;;;19.83;;
7179;SDS011;3631;42.152;24.756;2024-02-26T02:47:40;34.60;;;19.80;;
7179;SDS011;3631;42.152;24.756;2024-02-26T02:50:07;35.83;;;20.43;;
7179;SDS011;3631;42.152;24.756;2024-02-26T02:52:33;31.53;;;19.33;;
7179;SDS011;3631;42.152;24.756;2024-02-26T02:55:02;32.43;;;19.53;;
7179;SDS011;3631;42.152;24.756;2024-02-26T02:57:29;32.33;;;20.37;;
7179;SDS011;3631;42.152;24.756;2024-02-26T02:59:56;33.60;;;21.03;;
7179;SDS011;3631;42.152;24.756;2024-02-26T03:02:23;36.47;;;21.90;;
7179;SDS011;3631;42.152;24.756;2024-02-26T03:04:50;33.33;;;20.33;;
7179;SDS011;3631;42.152;24.756;2024-02-26T03:07:18;34.00;;;19.83;;
7179;SDS011;3631;42.152;24.756;2024-02-26T03:09:44;33.90;;;21.07;;
7179;SDS011;3631;42.152;24.756;2024-02-26T03:12:13;33.33;;;20.47;;
7179;SDS011;3631;42.152;24.756;2024-02-26T03:14:40;31.27;;;19.80;;
7179;SDS011;3631;42.152;24.756;2024-02-26T03:17:07;27.93;;;19.00;;
7179;SDS011;3631;42.152;24.756;2024-02-26T03:19:34;31.30;;;19.73;;
7179;SDS011;3631;42.152;24.756;2024-02-26T03:22:00;33.67;;;20.07;;
7179;SDS011;3631;42.152;24.756;2024-02-26T03:24:28;36.73;;;21.07;;
7179;SDS011;3631;42.152;24.756;2024-02-26T03:26:54;36.43;;;23.23;;
7179;SDS011;3631;42.152;24.756;2024-02-26T03:29:23;37.07;;;22.83;;
7179;SDS011;3631;42.152;24.756;2024-02-26T03:31:50;37.70;;;24.77;;
7179;SDS011;3631;42.152;24.756;2024-02-26T03:34:17;44.80;;;24.37;;
7179;SDS011;3631;42.152;24.756;2024-02-26T03:36:45;47.30;;;25.53;;
7179;SDS011;3631;42.152;24.756;2024-02-26T03:39:11;45.10;;;27.10;;
7179;SDS011;3631;42.152;24.756;2024-02-26T03:41:38;43.33;;;25.70;;
7179;SDS011;3631;42.152;24.756;2024-02-26T03:44:05;49.70;;;28.17;;
7179;SDS011;3631;42.152;24.756;2024-02-26T03:46:34;51.63;;;27.00;;
7179;SDS011;3631;42.152;24.756;2024-02-26T03:49:00;46.40;;;27.90;;
7179;SDS011;3631;42.152;24.756;2024-02-26T03:51:27;47.50;;;29.23;;
7179;SDS011;3631;42.152;24.756;2024-02-26T03:53:56;49.90;;;27.60;;
7179;SDS011;3631;42.152;24.756;2024-02-26T03:56:23;51.47;;;26.13;;
7179;SDS011;3631;42.152;24.756;2024-02-26T03:58:50;42.90;;;25.13;;
7179;SDS011;3631;42.152;24.756;2024-02-26T04:01:17;40.67;;;25.77;;
7179;SDS011;3631;42.152;24.756;2024-02-26T04:03:45;44.77;;;25.57;;
7179;SDS011;3631;42.152;24.756;2024-02-26T04:06:12;41.17;;;26.07;;
7179;SDS011;3631;42.152;24.756;2024-02-26T04:08:40;40.70;;;26.30;;
7179;SDS011;3631;42.152;24.756;2024-02-26T04:11:07;39.40;;;24.73;;
7179;SDS011;3631;42.152;24.756;2024-02-26T04:13:34;39.90;;;23.47;;
7179;SDS011;3631;42.152;24.756;2024-02-26T04:16:01;36.10;;;23.97;;
7179;SDS011;3631;42.152;24.756;2024-02-26T04:18:27;34.07;;;22.87;;
7179;SDS011;3631;42.152;24.756;2024-02-26T04:20:56;40.20;;;23.83;;
7179;SDS011;3631;42.152;24.756;2024-02-26T04:23:23;38.43;;;23.10;;
7179;SDS011;3631;42.152;24.756;2024-02-26T04:25:50;34.13;;;20.77;;
7179;SDS011;3631;42.152;24.756;2024-02-26T04:28:18;29.40;;;20.13;;
7179;SDS011;3631;42.152;24.756;2024-02-26T04:30:46;30.80;;;18.47;;
7179;SDS011;3631;42.152;24.756;2024-02-26T04:33:13;30.50;;;18.87;;
7179;SDS011;3631;42.152;24.756;2024-02-26T04:35:40;32.43;;;19.77;;
7179;SDS011;3631;42.152;24.756;2024-02-26T04:38:09;33.33;;;19.37;;
7179;SDS011;3631;42.152;24.756;2024-02-26T04:40:36;29.70;;;17.30;;
7179;SDS011;3631;42.152;24.756;2024-02-26T04:43:03;27.20;;;16.97;;
7179;SDS011;3631;42.152;24.756;2024-02-26T04:45:30;23.87;;;16.67;;
7179;SDS011;3631;42.152;24.756;2024-02-26T04:47:56;35.83;;;17.33;;
7179;SDS011;3631;42.152;24.756;2024-02-26T04:50:23;31.67;;;19.47;;
7179;SDS011;3631;42.152;24.756;2024-02-26T04:52:50;30.37;;;19.10;;
7179;SDS011;3631;42.152;24.756;2024-02-26T04:55:19;31.53;;;19.57;;
7179;SDS011;3631;42.152;24.756;2024-02-26T04:57:45;25.33;;;17.10;;
7179;SDS011;3631;42.152;24.756;2024-02-26T05:00:13;25.97;;;16.37;;
7179;SDS011;3631;42.152;24.756;2024-02-26T05:02:40;27.10;;;17.13;;
7179;SDS011;3631;42.152;24.756;2024-02-26T05:05:08;22.83;;;14.90;;
7179;SDS011;3631;42.152;24.756;2024-02-26T05:07:39;19.30;;;15.07;;
7179;SDS011;3631;42.152;24.756;2024-02-26T05:10:06;21.07;;;14.67;;
7179;SDS011;3631;42.152;24.756;2024-02-26T05:12:35;21.57;;;14.40;;
7179;SDS011;3631;42.152;24.756;2024-02-26T05:15:02;21.90;;;14.73;;
7179;SDS011;3631;42.152;24.756;2024-02-26T05:17:29;22.97;;;14.20;;
7179;SDS011;3631;42.152;24.756;2024-02-26T05:19:56;20.70;;;13.70;;
7179;SDS011;3631;42.152;24.756;2024-02-26T05:22:23;17.37;;;13.63;;
7179;SDS011;3631;42.152;24.756;2024-02-26T05:24:49;22.90;;;14.53;;
7179;SDS011;3631;42.152;24.756;2024-02-26T05:27:17;19.90;;;11.87;;
7179;SDS011;3631;42.152;24.756;2024-02-26T05:29:45;14.37;;;11.33;;
7179;SDS011;3631;42.152;24.756;2024-02-26T05:32:12;16.97;;;11.60;;
7179;SDS011;3631;42.152;24.756;2024-02-26T05:34:39;18.53;;;11.83;;
7179;SDS011;3631;42.152;24.756;2024-02-26T05:37:07;24.23;;;12.53;;
7179;SDS011;3631;42.152;24.756;2024-02-26T05:39:34;27.50;;;14.23;;
7179;SDS011;3631;42.152;24.756;2024-02-26T05:42:00;21.67;;;11.87;;
7179;SDS011;3631;42.152;24.756;2024-02-26T05:44:28;19.73;;;11.63;;
7179;SDS011;3631;42.152;24.756;2024-02-26T05:46:56;14.37;;;10.60;;
7179;SDS011;3631;42.152;24.756;2024-02-26T05:49:23;24.00;;;11.73;;
7179;SDS011;3631;42.152;24.756;2024-02-26T05:51:50;15.40;;;11.47;;
7179;SDS011;3631;42.152;24.756;2024-02-26T05:54:17;15.87;;;10.77;;
7179;SDS011;3631;42.152;24.756;2024-02-26T05:56:44;18.13;;;11.00;;
7179;SDS011;3631;42.152;24.756;2024-02-26T05:59:10;14.53;;;11.47;;
7179;SDS011;3631;42.152;24.756;2024-02-26T06:01:37;18.80;;;12.13;;
7179;SDS011;3631;42.152;24.756;2024-02-26T06:04:06;22.03;;;14.57;;
7179;SDS011;3631;42.152;24.756;2024-02-26T06:06:32;21.53;;;13.23;;
7179;SDS011;3631;42.152;24.756;2024-02-26T06:08:59;23.53;;;13.00;;
7179;SDS011;3631;42.152;24.756;2024-02-26T06:11:26;25.40;;;13.30;;
7179;SDS011;3631;42.152;24.756;2024-02-26T06:13:53;19.83;;;13.50;;
7179;SDS011;3631;42.152;24.756;2024-02-26T06:16:20;24.77;;;13.50;;
7179;SDS011;3631;42.152;24.756;2024-02-26T06:18:47;22.23;;;12.67;;
7179;SDS011;3631;42.152;24.756;2024-02-26T06:21:15;20.40;;;13.30;;
7179;SDS011;3631;42.152;24.756;2024-02-26T06:23:42;18.50;;;13.03;;
7179;SDS011;3631;42.152;24.756;2024-02-26T06:26:09;25.90;;;13.90;;
7179;SDS011;3631;42.152;24.756;2024-02-26T06:28:36;19.63;;;12.80;;
7179;SDS011;3631;42.152;24.756;2024-02-26T06:31:05;18.60;;;13.03;;
7179;SDS011;3631;42.152;24.756;2024-02-26T06:33:32;20.33;;;12.93;;
7179;SDS011;3631;42.152;24.756;2024-02-26T06:35:59;19.03;;;12.73;;
7179;SDS011;3631;42.152;24.756;2024-02-26T06:38:28;28.20;;;16.07;;
7179;SDS011;3631;42.152;24.756;2024-02-26T06:40:54;35.60;;;17.77;;
7179;SDS011;3631;42.152;24.756;2024-02-26T06:43:22;28.27;;;17.53;;
7179;SDS011;3631;42.152;24.756;2024-02-26T06:45:48;27.90;;;18.43;;
7179;SDS011;3631;42.152;24.756;2024-02-26T06:48:15;37.97;;;19.30;;
7179;SDS011;3631;42.152;24.756;2024-02-26T06:50:42;30.00;;;18.53;;
7179;SDS011;3631;42.152;24.756;2024-02-26T06:53:09;29.30;;;19.40;;
7179;SDS011;3631;42.152;24.756;2024-02-26T06:55:38;30.63;;;17.70;;
7179;SDS011;3631;42.152;24.756;2024-02-26T06:58:05;30.53;;;18.67;;
7179;SDS011;3631;42.152;24.756;2024-02-26T07:00:32;30.03;;;18.23;;
7179;SDS011;3631;42.152;24.756;2024-02-26T07:02:59;27.23;;;18.57;;
7179;SDS011;3631;42.152;24.756;2024-02-26T07:05:26;36.93;;;19.80;;
7179;SDS011;3631;42.152;24.756;2024-02-26T07:07:53;33.07;;;19.20;;
7179;SDS011;3631;42.152;24.756;2024-02-26T07:10:20;33.57;;;20.47;;
7179;SDS011;3631;42.152;24.756;2024-02-26T07:12:49;36.03;;;21.20;;
7179;SDS011;3631;42.152;24.756;2024-02-26T07:15:15;44.30;;;24.50;;
7179;SDS011;3631;42.152;24.756;2024-02-26T07:17:43;38.23;;;22.93;;
7179;SDS011;3631;42.152;24.756;2024-02-26T07:20:12;45.77;;;23.07;;
7179;SDS011;3631;42.152;24.756;2024-02-26T07:22:40;42.93;;;22.97;;
7179;SDS011;3631;42.152;24.756;2024-02-26T07:25:07;48.90;;;23.27;;
7179;SDS011;3631;42.152;24.756;2024-02-26T07:27:38;36.33;;;23.93;;
7179;SDS011;3631;42.152;24.756;2024-02-26T07:30:07;45.30;;;25.53;;
7179;SDS011;3631;42.152;24.756;2024-02-26T07:32:34;39.10;;;23.57;;
7179;SDS011;3631;42.152;24.756;2024-02-26T07:35:01;34.57;;;20.67;;
7179;SDS011;3631;42.152;24.756;2024-02-26T07:37:28;40.07;;;22.17;;
7179;SDS011;3631;42.152;24.756;2024-02-26T07:39:55;44.33;;;24.23;;
7179;SDS011;3631;42.152;24.756;2024-02-26T07:42:22;52.57;;;27.47;;
7179;SDS011;3631;42.152;24.756;2024-02-26T07:44:49;50.33;;;30.03;;
7179;SDS011;3631;42.152;24.756;2024-02-26T07:47:19;52.67;;;31.40;;
7179;SDS011;3631;42.152;24.756;2024-02-26T07:49:46;66.73;;;32.43;;
7179;SDS011;3631;42.152;24.756;2024-02-26T07:52:13;60.83;;;30.57;;
7179;SDS011;3631;42.152;24.756;2024-02-26T07:54:39;67.50;;;28.70;;
7179;SDS011;3631;42.152;24.756;2024-02-26T07:57:06;52.47;;;26.80;;
7179;SDS011;3631;42.152;24.756;2024-02-26T07:59:33;44.90;;;24.60;;
7179;SDS011;3631;42.152;24.756;2024-02-26T08:02:00;56.50;;;25.23;;
7179;SDS011;3631;42.152;24.756;2024-02-26T08:04:29;35.53;;;24.57;;
7179;SDS011;3631;42.152;24.756;2024-02-26T08:06:56;43.87;;;27.30;;
7179;SDS011;3631;42.152;24.756;2024-02-26T08:09:23;40.93;;;23.87;;
7179;SDS011;3631;42.152;24.756;2024-02-26T08:11:50;33.07;;;22.23;;
7179;SDS011;3631;42.152;24.756;2024-02-26T08:14:17;39.73;;;23.20;;
7179;SDS011;3631;42.152;24.756;2024-02-26T08:16:44;35.90;;;21.33;;
7179;SDS011;3631;42.152;24.756;2024-02-26T08:19:11;46.07;;;22.40;;
7179;SDS011;3631;42.152;24.756;2024-02-26T08:21:41;36.67;;;22.53;;
7179;SDS011;3631;42.152;24.756;2024-02-26T08:24:08;40.53;;;23.33;;
7179;SDS011;3631;42.152;24.756;2024-02-26T08:26:35;40.10;;;22.80;;
7179;SDS011;3631;42.152;24.756;2024-02-26T08:29:02;41.83;;;22.47;;
7179;SDS011;3631;42.152;24.756;2024-02-26T08:31:29;34.60;;;22.00;;
7179;SDS011;3631;42.152;24.756;2024-02-26T08:33:56;36.77;;;22.03;;
7179;SDS011;3631;42.152;24.756;2024-02-26T08:36:23;32.30;;;19.93;;
7179;SDS011;3631;42.152;24.756;2024-02-26T08:38:51;33.63;;;19.10;;
7179;SDS011;3631;42.152;24.756;2024-02-26T08:41:18;34.10;;;19.60;;
7179;SDS011;3631;42.152;24.756;2024-02-26T08:43:45;35.27;;;19.73;;
7179;SDS011;3631;42.152;24.756;2024-02-26T08:46:12;34.33;;;19.37;;
7179;SDS011;3631;42.152;24.756;2024-02-26T08:48:39;30.73;;;19.23;;
7179;SDS011;3631;42.152;24.756;2024-02-26T08:51:06;29.57;;;19.30;;
7179;SDS011;3631;42.152;24.756;2024-02-26T08:53:34;31.37;;;19.40;;
7179;SDS011;3631;42.152;24.756;2024-02-26T08:56:03;29.27;;;18.67;;
7179;SDS011;3631;42.152;24.756;2024-02-26T08:58:31;28.77;;;18.57;;
7179;SDS011;3631;42.152;24.756;2024-02-26T09:00:58;33.47;;;18.30;;
7179;SDS011;3631;42.152;24.756;2024-02-26T09:03:24;31.17;;;18.60;;
7179;SDS011;3631;42.152;24.756;2024-02-26T09:05:51;30.20;;;17.17;;
7179;SDS011;3631;42.152;24.756;2024-02-26T09:08:18;28.13;;;16.53;;
7179;SDS011;3631;42.152;24.756;2024-02-26T09:10:45;29.97;;;16.77;;
7179;SDS011;3631;42.152;24.756;2024-02-26T09:13:13;27.00;;;16.37;;
7179;SDS011;3631;42.152;24.756;2024-02-26T09:15:40;31.33;;;18.13;;
7179;SDS011;3631;42.152;24.756;2024-02-26T09:18:07;27.10;;;17.50;;
7179;SDS011;3631;42.152;24.756;2024-02-26T09:20:34;30.03;;;18.23;;
7179;SDS011;3631;42.152;24.756;2024-02-26T09:23:01;26.87;;;18.53;;
7179;SDS011;3631;42.152;24.756;2024-02-26T09:25:30;25.83;;;17.70;;
7179;SDS011;3631;42.152;24.756;2024-02-26T09:27:58;27.30;;;17.63;;
7179;SDS011;3631;42.152;24.756;2024-02-26T09:30:26;26.80;;;17.53;;
7179;SDS011;3631;42.152;24.756;2024-02-26T09:32:53;24.87;;;17.57;;
7179;SDS011;3631;42.152;24.756;2024-02-26T09:35:20;32.70;;;19.27;;
7179;SDS011;3631;42.152;24.756;2024-02-26T09:37:47;40.87;;;20.80;;
7179;SDS011;3631;42.152;24.756;2024-02-26T09:40:15;30.67;;;20.20;;
7179;SDS011;3631;42.152;24.756;2024-02-26T09:42:42;39.93;;;20.83;;
7179;SDS011;3631;42.152;24.756;2024-02-26T09:45:10;39.33;;;19.70;;
7179;SDS011;3631;42.152;24.756;2024-02-26T09:47:45;37.90;;;20.27;;
7179;SDS011;3631;42.152;24.756;2024-02-26T09:50:14;34.70;;;19.87;;
7179;SDS011;3631;42.152;24.756;2024-02-26T09:52:43;29.87;;;18.47;;
7179;SDS011;3631;42.152;24.756;2024-02-26T09:55:10;27.53;;;18.60;;
7179;SDS011;3631;42.152;24.756;2024-02-26T09:57:37;26.00;;;17.67;;
7179;SDS011;3631;42.152;24.756;2024-02-26T10:00:05;31.57;;;19.93;;
7179;SDS011;3631;42.152;24.756;2024-02-26T10:02:37;33.50;;;19.70;;
7179;SDS011;3631;42.152;24.756;2024-02-26T10:05:07;34.60;;;19.17;;
7179;SDS011;3631;42.152;24.756;2024-02-26T10:07:38;30.77;;;19.60;;
7179;SDS011;3631;42.152;24.756;2024-02-26T10:10:06;34.50;;;18.73;;
7179;SDS011;3631;42.152;24.756;2024-02-26T10:12:35;32.20;;;18.40;;
7179;SDS011;3631;42.152;24.756;2024-02-26T10:15:02;28.53;;;18.53;;
7179;SDS011;3631;42.152;24.756;2024-02-26T10:17:29;34.33;;;21.13;;
7179;SDS011;3631;42.152;24.756;2024-02-26T10:20:11;31.80;;;19.87;;
7179;SDS011;3631;42.152;24.756;2024-02-26T10:22:42;31.83;;;18.90;;
7179;SDS011;3631;42.152;24.756;2024-02-26T10:25:09;26.30;;;19.13;;
7179;SDS011;3631;42.152;24.756;2024-02-26T10:27:36;44.10;;;17.70;;
7179;SDS011;3631;42.152;24.756;2024-02-26T10:30:03;25.87;;;17.33;;
7179;SDS011;3631;42.152;24.756;2024-02-26T10:32:31;25.57;;;16.23;;
7179;SDS011;3631;42.152;24.756;2024-02-26T10:34:58;27.63;;;16.90;;
7179;SDS011;3631;42.152;24.756;2024-02-26T10:37:27;27.27;;;16.20;;
7179;SDS011;3631;42.152;24.756;2024-02-26T10:39:54;29.00;;;16.03;;
7179;SDS011;3631;42.152;24.756;2024-02-26T10:42:20;26.77;;;16.20;;
7179;SDS011;3631;42.152;24.756;2024-02-26T10:44:47;23.40;;;14.60;;
7179;SDS011;3631;42.152;24.756;2024-02-26T10:47:14;20.60;;;14.23;;
7179;SDS011;3631;42.152;24.756;2024-02-26T10:49:45;21.30;;;15.07;;
7179;SDS011;3631;42.152;24.756;2024-02-26T10:52:14;28.93;;;15.13;;
7179;SDS011;3631;42.152;24.756;2024-02-26T10:54:43;19.47;;;14.57;;
7179;SDS011;3631;42.152;24.756;2024-02-26T10:57:15;26.93;;;15.73;;
7179;SDS011;3631;42.152;24.756;2024-02-26T10:59:44;18.40;;;13.20;;
7179;SDS011;3631;42.152;24.756;2024-02-26T11:02:11;19.23;;;13.50;;
7179;SDS011;3631;42.152;24.756;2024-02-26T11:04:40;26.63;;;14.87;;
7179;SDS011;3631;42.152;24.756;2024-02-26T11:07:08;21.03;;;13.93;;
7179;SDS011;3631;42.152;24.756;2024-02-26T11:09:36;16.17;;;12.87;;
7179;SDS011;3631;42.152;24.756;2024-02-26T11:12:09;20.13;;;14.20;;
7179;SDS011;3631;42.152;24.756;2024-02-26T11:14:38;16.47;;;13.27;;
7179;SDS011;3631;42.152;24.756;2024-02-26T11:17:07;17.13;;;12.80;;
7179;SDS011;3631;42.152;24.756;2024-02-26T11:19:35;19.50;;;12.03;;
7179;SDS011;3631;42.152;24.756;2024-02-26T11:22:03;14.47;;;11.73;;
7179;SDS011;3631;42.152;24.756;2024-02-26T11:24:30;20.57;;;11.77;;
7179;SDS011;3631;42.152;24.756;2024-02-26T11:26:59;16.60;;;12.53;;
7179;SDS011;3631;42.152;24.756;2024-02-26T11:29:32;23.60;;;13.37;;
7179;SDS011;3631;42.152;24.756;2024-02-26T11:32:02;18.13;;;12.93;;
7179;SDS011;3631;42.152;24.756;2024-02-26T11:34:29;18.20;;;13.07;;
7179;SDS011;3631;42.152;24.756;2024-02-26T11:36:56;19.63;;;12.93;;
7179;SDS011;3631;42.152;24.756;2024-02-26T11:39:23;20.13;;;13.23;;
7179;SDS011;3631;42.152;24.756;2024-02-26T11:41:52;18.73;;;13.63;;
7179;SDS011;3631;42.152;24.756;2024-02-26T11:44:29;22.83;;;14.33;;
7179;SDS011;3631;42.152;24.756;2024-02-26T11:46:56;23.47;;;14.13;;
7179;SDS011;3631;42.152;24.756;2024-02-26T11:49:30;20.20;;;14.03;;
7179;SDS011;3631;42.152;24.756;2024-02-26T11:51:59;20.97;;;14.27;;
7179;SDS011;3631;42.152;24.756;2024-02-26T11:54:38;23.50;;;13.83;;
7179;SDS011;3631;42.152;24.756;2024-02-26T11:57:19;22.83;;;15.33;;
7179;SDS011;3631;42.152;24.756;2024-02-26T11:59:48;22.83;;;14.53;;
7179;SDS011;3631;42.152;24.756;2024-02-26T12:05:06;19.50;;;14.10;;
7179;SDS011;3631;42.152;24.756;2024-02-26T12:07:36;21.83;;;15.73;;
7179;SDS011;3631;42.152;24.756;2024-02-26T12:10:15;20.67;;;15.63;;
7179;SDS011;3631;42.152;24.756;2024-02-26T12:12:52;22.27;;;16.93;;
7179;SDS011;3631;42.152;24.756;2024-02-26T12:15:23;25.70;;;15.73;;
7179;SDS011;3631;42.152;24.756;2024-02-26T12:17:51;17.90;;;14.13;;
7179;SDS011;3631;42.152;24.756;2024-02-26T12:20:19;25.27;;;14.33;;
7179;SDS011;3631;42.152;24.756;2024-02-26T12:22:46;23.63;;;16.63;;
7179;SDS011;3631;42.152;24.756;2024-02-26T12:25:14;26.87;;;16.23;;
7179;SDS011;3631;42.152;24.756;2024-02-26T12:27:41;23.67;;;15.70;;
7179;SDS011;3631;42.152;24.756;2024-02-26T12:30:08;22.55;;;14.55;;
7179;SDS011;3631;42.152;24.756;2024-02-26T12:32:37;20.60;;;16.07;;
7179;SDS011;3631;42.152;24.756;2024-02-26T12:35:05;20.63;;;14.98;;
7179;SDS011;3631;42.152;24.756;2024-02-26T12:37:33;26.40;;;15.40;;
7179;SDS011;3631;42.152;24.756;2024-02-26T12:40:03;23.17;;;15.07;;
7179;SDS011;3631;42.152;24.756;2024-02-26T12:42:32;20.63;;;14.85;;
7179;SDS011;3631;42.152;24.756;2024-02-26T12:45:04;21.42;;;14.40;;
7179;SDS011;3631;42.152;24.756;2024-02-26T12:47:35;21.85;;;13.85;;
7179;SDS011;3631;42.152;24.756;2024-02-26T12:50:04;18.23;;;13.35;;
7179;SDS011;3631;42.152;24.756;2024-02-26T12:52:32;15.65;;;11.80;;
7179;SDS011;3631;42.152;24.756;2024-02-26T12:55:00;17.45;;;12.55;;
7179;SDS011;3631;42.152;24.756;2024-02-26T12:57:29;17.02;;;11.82;;
7179;SDS011;3631;42.152;24.756;2024-02-26T12:59:57;16.60;;;12.02;;
7179;SDS011;3631;42.152;24.756;2024-02-26T13:02:25;16.00;;;10.27;;
7179;SDS011;3631;42.152;24.756;2024-02-26T13:04:54;15.13;;;11.70;;
7179;SDS011;3631;42.152;24.756;2024-02-26T13:07:22;18.05;;;10.82;;
7179;SDS011;3631;42.152;24.756;2024-02-26T13:09:49;15.95;;;10.88;;
7179;SDS011;3631;42.152;24.756;2024-02-26T13:12:16;16.77;;;10.90;;
7179;SDS011;3631;42.152;24.756;2024-02-26T13:14:43;21.27;;;11.30;;
7179;SDS011;3631;42.152;24.756;2024-02-26T13:17:10;19.05;;;11.10;;
7179;SDS011;3631;42.152;24.756;2024-02-26T13:19:37;20.63;;;12.43;;
7179;SDS011;3631;42.152;24.756;2024-02-26T13:22:06;15.65;;;12.45;;
7179;SDS011;3631;42.152;24.756;2024-02-26T13:24:33;16.00;;;13.00;;
7179;SDS011;3631;42.152;24.756;2024-02-26T13:27:00;21.50;;;13.27;;
7179;SDS011;3631;42.152;24.756;2024-02-26T13:29:28;21.05;;;13.55;;
7179;SDS011;3631;42.152;24.756;2024-02-26T13:31:55;19.83;;;12.38;;
7179;SDS011;3631;42.152;24.756;2024-02-26T13:34:23;20.38;;;12.00;;
7179;SDS011;3631;42.152;24.756;2024-02-26T13:36:51;19.38;;;11.55;;
7179;SDS011;3631;42.152;24.756;2024-02-26T13:39:23;14.77;;;10.63;;
7179;SDS011;3631;42.152;24.756;2024-02-26T13:41:51;15.88;;;10.63;;
7179;SDS011;3631;42.152;24.756;2024-02-26T13:44:18;15.27;;;11.07;;
7179;SDS011;3631;42.152;24.756;2024-02-26T13:46:46;20.35;;;10.82;;
7179;SDS011;3631;42.152;24.756;2024-02-26T13:49:14;14.95;;;11.00;;
7179;SDS011;3631;42.152;24.756;2024-02-26T13:51:41;18.98;;;11.48;;
7179;SDS011;3631;42.152;24.756;2024-02-26T13:54:08;21.02;;;12.73;;
7179;SDS011;3631;42.152;24.756;2024-02-26T13:56:37;19.42;;;13.30;;
7179;SDS011;3631;42.152;24.756;2024-02-26T13:59:04;21.00;;;14.48;;
7179;SDS011;3631;42.152;24.756;2024-02-26T14:01:31;20.65;;;13.63;;
7179;SDS011;3631;42.152;24.756;2024-02-26T14:03:59;23.38;;;13.48;;
7179;SDS011;3631;42.152;24.756;2024-02-26T14:06:27;23.27;;;13.67;;
7179;SDS011;3631;42.152;24.756;2024-02-26T14:08:55;27.33;;;13.43;;
7179;SDS011;3631;42.152;24.756;2024-02-26T14:11:22;30.40;;;13.37;;
7179;SDS011;3631;42.152;24.756;2024-02-26T14:13:52;22.05;;;13.80;;
7179;SDS011;3631;42.152;24.756;2024-02-26T14:16:18;16.05;;;13.05;;
7179;SDS011;3631;42.152;24.756;2024-02-26T14:18:45;23.17;;;13.95;;
7179;SDS011;3631;42.152;24.756;2024-02-26T14:21:12;16.00;;;12.20;;
7179;SDS011;3631;42.152;24.756;2024-02-26T14:23:39;25.58;;;13.73;;
7179;SDS011;3631;42.152;24.756;2024-02-26T14:26:07;13.50;;;10.60;;
7179;SDS011;3631;42.152;24.756;2024-02-26T14:28:34;8.63;;;7.77;;
7179;SDS011;3631;42.152;24.756;2024-02-26T14:31:03;10.47;;;8.27;;
7179;SDS011;3631;42.152;24.756;2024-02-26T14:33:31;14.13;;;7.53;;
7179;SDS011;3631;42.152;24.756;2024-02-26T14:35:57;11.37;;;6.63;;
7179;SDS011;3631;42.152;24.756;2024-02-26T14:38:24;9.83;;;6.83;;
7179;SDS011;3631;42.152;24.756;2024-02-26T14:40:51;9.60;;;6.93;;